createdAt,value
2018-04-24T00:00:15.170Z,0
2018-04-24T00:01:14.795Z,0
2018-04-24T00:02:14.766Z,0
2018-04-24T00:03:14.996Z,0
2018-04-24T00:04:14.722Z,0
2018-04-24T00:05:14.949Z,0
2018-04-24T00:06:14.920Z,0
2018-04-24T00:07:14.905Z,0
2018-04-24T00:08:14.876Z,0
2018-04-24T00:09:14.852Z,0
2018-04-24T00:10:14.575Z,0
2018-04-24T00:11:14.563Z,0
2018-04-24T00:12:14.534Z,0
2018-04-24T00:13:14.514Z,0
2018-04-24T00:14:14.491Z,0
2018-04-24T00:15:14.808Z,0
2018-04-24T00:16:14.685Z,0
2018-04-24T00:17:14.672Z,0
2018-04-24T00:18:14.714Z,0
2018-04-24T00:19:14.118Z,0
2018-04-24T00:20:14.591Z,0
2018-04-24T00:21:14.562Z,0
2018-04-24T00:22:14.538Z,0
2018-04-24T00:23:14.269Z,0
2018-04-24T00:24:14.493Z,0
2018-04-24T00:25:14.465Z,0
2018-04-24T00:26:14.649Z,0
2018-04-24T00:27:14.433Z,0
2018-04-24T00:28:14.403Z,0
2018-04-24T00:29:14.129Z,0
2018-04-24T00:30:14.362Z,0
2018-04-24T00:31:14.338Z,0
2018-04-24T00:32:14.305Z,0
2018-04-24T00:33:14.039Z,0
2018-04-24T00:34:14.014Z,0
2018-04-24T00:35:13.979Z,0
2018-04-24T00:36:14.206Z,0
2018-04-24T00:37:14.185Z,0
2018-04-24T00:38:13.916Z,0
2018-04-24T00:39:14.140Z,0
2018-04-24T00:40:14.117Z,0
2018-04-24T00:41:13.844Z,0
2018-04-24T00:42:14.074Z,0
2018-04-24T00:43:14.043Z,0
2018-04-24T00:44:13.764Z,0
2018-04-24T00:45:13.742Z,0
2018-04-24T00:46:13.723Z,0
2018-04-24T00:47:13.452Z,0
2018-04-24T00:48:13.680Z,0
2018-04-24T00:49:13.893Z,0
2018-04-24T00:50:13.621Z,0
2018-04-24T00:51:13.856Z,0
2018-04-24T00:52:13.832Z,0
2018-04-24T00:53:13.800Z,0
2018-04-24T00:54:13.841Z,0
2018-04-24T00:55:13.751Z,0
2018-04-24T00:56:13.726Z,0
2018-04-24T00:57:13.458Z,0
2018-04-24T00:58:13.435Z,0
2018-04-24T00:59:13.662Z,0
2018-04-24T01:00:13.632Z,0
2018-04-24T01:01:13.358Z,0
2018-04-24T01:02:13.090Z,0
2018-04-24T01:03:13.567Z,0
2018-04-24T01:04:13.543Z,0
2018-04-24T01:05:13.520Z,0
2018-04-24T01:06:13.240Z,0
2018-04-24T01:07:13.213Z,0
2018-04-24T01:08:13.445Z,0
2018-04-24T01:09:13.185Z,0
2018-04-24T01:10:13.403Z,0
2018-04-24T01:11:13.364Z,0
2018-04-24T01:12:13.090Z,0
2018-04-24T01:13:13.324Z,0
2018-04-24T01:14:13.389Z,0
2018-04-24T01:15:13.293Z,0
2018-04-24T01:16:12.999Z,0
2018-04-24T01:17:12.973Z,0
2018-04-24T01:18:12.954Z,0
2018-04-24T01:19:12.927Z,0
2018-04-24T01:20:12.903Z,0
2018-04-24T01:21:13.133Z,0
2018-04-24T01:22:13.104Z,0
2018-04-24T01:23:12.585Z,0
2018-04-24T01:24:12.804Z,0
2018-04-24T01:25:12.780Z,0
2018-04-24T01:26:13.007Z,0
2018-04-24T01:27:12.990Z,0
2018-04-24T01:28:12.719Z,0
2018-04-24T01:29:12.935Z,0
2018-04-24T01:30:12.667Z,0
2018-04-24T01:31:12.884Z,0
2018-04-24T01:32:12.972Z,0
2018-04-24T01:33:12.840Z,0
2018-04-24T01:34:12.908Z,0
2018-04-24T01:35:12.788Z,0
2018-04-24T01:36:12.526Z,0
2018-04-24T01:37:12.500Z,0
2018-04-24T01:38:12.734Z,0
2018-04-24T01:39:12.448Z,0
2018-04-24T01:40:12.667Z,0
2018-04-24T01:41:12.398Z,0
2018-04-24T01:42:12.122Z,0
2018-04-24T01:43:12.597Z,0
2018-04-24T01:44:12.579Z,0
2018-04-24T01:45:12.558Z,0
2018-04-24T01:46:12.025Z,0
2018-04-24T01:47:12.254Z,0
2018-04-24T01:48:12.547Z,0
2018-04-24T01:49:12.448Z,0
2018-04-24T01:50:12.173Z,0
2018-04-24T01:51:12.398Z,0
2018-04-24T01:52:12.144Z,0
2018-04-24T01:53:11.892Z,0
2018-04-24T01:54:12.091Z,0
2018-04-24T01:55:12.311Z,0
2018-04-24T01:56:12.037Z,0
2018-04-24T01:57:12.017Z,0
2018-04-24T01:58:12.237Z,0
2018-04-24T01:59:12.204Z,0
2018-04-24T02:00:11.954Z,0
2018-04-24T02:01:11.660Z,0
2018-04-24T02:02:12.125Z,0
2018-04-24T02:03:12.107Z,0
2018-04-24T02:04:12.093Z,0
2018-04-24T02:05:12.067Z,0
2018-04-24T02:06:11.798Z,0
2018-04-24T02:07:12.008Z,0
2018-04-24T02:08:11.993Z,0
2018-04-24T02:09:11.719Z,0
2018-04-24T02:10:11.442Z,0
2018-04-24T02:11:11.912Z,0
2018-04-24T02:12:12.092Z,0
2018-04-24T02:13:11.870Z,0
2018-04-24T02:14:11.853Z,0
2018-04-24T02:15:11.320Z,0
2018-04-24T02:16:11.815Z,0
2018-04-24T02:17:11.769Z,0
2018-04-24T02:18:11.762Z,0
2018-04-24T02:19:11.718Z,0
2018-04-24T02:20:11.199Z,0
2018-04-24T02:21:11.673Z,0
2018-04-24T02:22:11.646Z,0
2018-04-24T02:23:11.378Z,0
2018-04-24T02:24:11.601Z,0
2018-04-24T02:25:11.678Z,0
2018-04-24T02:26:11.559Z,0
2018-04-24T02:27:11.525Z,0
2018-04-24T02:28:11.508Z,0
2018-04-24T02:29:11.482Z,0
2018-04-24T02:30:11.205Z,0
2018-04-24T02:31:11.189Z,0
2018-04-24T02:32:11.406Z,0
2018-04-24T02:33:11.383Z,0
2018-04-24T02:34:11.354Z,0
2018-04-24T02:35:11.346Z,0
2018-04-24T02:36:11.314Z,0
2018-04-24T02:37:11.045Z,0
2018-04-24T02:38:11.265Z,0
2018-04-24T02:39:11.059Z,0
2018-04-24T02:40:11.213Z,0
2018-04-24T02:41:11.190Z,0
2018-04-24T02:42:11.173Z,0
2018-04-24T02:43:10.643Z,0
2018-04-24T02:44:10.614Z,0
2018-04-24T02:45:10.851Z,0
2018-04-24T02:46:11.068Z,0
2018-04-24T02:47:10.801Z,0
2018-04-24T02:48:11.046Z,0
2018-04-24T02:49:10.751Z,0
2018-04-24T02:50:10.969Z,0
2018-04-24T02:51:10.708Z,0
2018-04-24T02:52:10.916Z,0
2018-04-24T02:53:10.648Z,0
2018-04-24T02:54:10.870Z,0
2018-04-24T02:55:10.857Z,0
2018-04-24T02:56:10.570Z,0
2018-04-24T02:57:10.795Z,0
2018-04-24T02:58:10.781Z,0
2018-04-24T02:59:10.748Z,0
2018-04-24T03:00:10.729Z,0
2018-04-24T03:01:10.695Z,0
2018-04-24T03:02:10.423Z,0
2018-04-24T03:03:10.401Z,0
2018-04-24T03:04:10.372Z,0
2018-04-24T03:05:10.348Z,0
2018-04-24T03:06:10.351Z,0
2018-04-24T03:07:10.049Z,0
2018-04-24T03:08:10.523Z,0
2018-04-24T03:09:10.510Z,0
2018-04-24T03:10:10.485Z,0
2018-04-24T03:11:10.449Z,0
2018-04-24T03:12:10.182Z,0
2018-04-24T03:13:10.153Z,0
2018-04-24T03:14:10.370Z,0
2018-04-24T03:15:10.100Z,0
2018-04-24T03:16:10.080Z,0
2018-04-24T03:17:10.292Z,0
2018-04-24T03:18:10.267Z,0
2018-04-24T03:19:10.242Z,0
2018-04-24T03:20:10.225Z,0
2018-04-24T03:21:09.957Z,0
2018-04-24T03:22:09.930Z,0
2018-04-24T03:23:10.148Z,0
2018-04-24T03:24:10.123Z,0
2018-04-24T03:25:09.602Z,0
2018-04-24T03:26:09.576Z,0
2018-04-24T03:27:09.819Z,0
2018-04-24T03:28:10.027Z,0
2018-04-24T03:29:09.994Z,0
2018-04-24T03:30:09.985Z,0
2018-04-24T03:31:09.960Z,0
2018-04-24T03:32:09.923Z,0
2018-04-24T03:33:09.659Z,0
2018-04-24T03:34:09.882Z,0
2018-04-24T03:35:09.854Z,0
2018-04-24T03:36:09.604Z,0
2018-04-24T03:37:09.304Z,0
2018-04-24T03:38:09.525Z,0
2018-04-24T03:39:09.753Z,4
2018-04-24T03:40:09.475Z,4
2018-04-24T03:41:09.453Z,4
2018-04-24T03:42:09.682Z,0
2018-04-24T03:43:09.399Z,4
2018-04-24T03:44:09.633Z,4
2018-04-24T03:45:09.354Z,8
2018-04-24T03:46:09.322Z,4
2018-04-24T03:47:09.557Z,8
2018-04-24T03:48:09.273Z,8
2018-04-24T03:49:09.004Z,12
2018-04-24T03:50:09.235Z,12
2018-04-24T03:51:08.706Z,12
2018-04-24T03:52:08.925Z,16
2018-04-24T03:53:09.401Z,16
2018-04-24T03:54:09.371Z,20
2018-04-24T03:55:08.844Z,24
2018-04-24T03:56:08.824Z,28
2018-04-24T03:57:09.324Z,32
2018-04-24T03:58:09.030Z,36
2018-04-24T03:59:08.998Z,44
2018-04-24T04:00:08.976Z,48
2018-04-24T04:01:09.203Z,56
2018-04-24T04:02:08.923Z,64
2018-04-24T04:03:08.902Z,72
2018-04-24T04:04:08.871Z,84
2018-04-24T04:05:09.103Z,96
2018-04-24T04:06:08.836Z,108
2018-04-24T04:07:09.048Z,116
2018-04-24T04:08:08.771Z,132
2018-04-24T04:09:08.751Z,144
2018-04-24T04:10:08.974Z,160
2018-04-24T04:11:08.941Z,176
2018-04-24T04:12:08.677Z,192
2018-04-24T04:13:08.650Z,208
2018-04-24T04:14:08.375Z,228
2018-04-24T04:15:08.601Z,248
2018-04-24T04:16:08.504Z,280
2018-04-24T04:17:10.093Z,312
2018-04-24T04:18:08.518Z,344
2018-04-24T04:19:08.492Z,364
2018-04-24T04:20:08.472Z,388
2018-04-24T04:21:08.696Z,416
2018-04-24T04:22:08.419Z,448
2018-04-24T04:23:08.401Z,484
2018-04-24T04:24:08.368Z,524
2018-04-24T04:25:08.093Z,572
2018-04-24T04:26:08.316Z,624
2018-04-24T04:27:08.540Z,668
2018-04-24T04:28:08.275Z,720
2018-04-24T04:29:08.047Z,768
2018-04-24T04:30:08.467Z,820
2018-04-24T04:31:07.943Z,868
2018-04-24T04:32:08.428Z,916
2018-04-24T04:33:08.051Z,964
2018-04-24T04:34:08.375Z,1004
2018-04-24T04:35:07.848Z,1032
2018-04-24T04:36:08.319Z,1068
2018-04-24T04:37:08.046Z,1108
2018-04-24T04:38:08.022Z,1164
2018-04-24T04:39:08.240Z,1228
2018-04-24T04:40:07.718Z,1300
2018-04-24T04:41:07.945Z,1368
2018-04-24T04:42:07.668Z,1464
2018-04-24T04:43:08.143Z,1568
2018-04-24T04:44:07.863Z,1628
2018-04-24T04:45:07.838Z,1664
2018-04-24T04:46:07.567Z,1708
2018-04-24T04:47:07.798Z,1764
2018-04-24T04:48:07.767Z,1824
2018-04-24T04:49:07.494Z,1892
2018-04-24T04:50:07.717Z,1952
2018-04-24T04:51:07.946Z,2008
2018-04-24T04:52:07.664Z,2048
2018-04-24T04:53:07.651Z,2080
2018-04-24T04:54:07.977Z,2120
2018-04-24T04:55:07.348Z,2160
2018-04-24T04:56:07.700Z,2216
2018-04-24T04:57:07.295Z,2292
2018-04-24T04:58:07.772Z,2380
2018-04-24T04:59:07.507Z,2468
2018-04-24T05:00:07.241Z,2536
2018-04-24T05:01:07.442Z,2596
2018-04-24T05:02:07.424Z,2688
2018-04-24T05:03:07.391Z,2788
2018-04-24T05:04:07.721Z,2908
2018-04-24T05:05:07.367Z,3020
2018-04-24T05:06:07.675Z,3104
2018-04-24T05:07:07.301Z,3176
2018-04-24T05:08:07.531Z,3204
2018-04-24T05:09:07.501Z,3168
2018-04-24T05:10:07.479Z,3064
2018-04-24T05:11:07.198Z,2896
2018-04-24T05:12:07.621Z,2732
2018-04-24T05:13:07.153Z,2628
2018-04-24T05:14:07.377Z,2600
2018-04-24T05:15:07.352Z,2664
2018-04-24T05:16:06.831Z,2796
2018-04-24T05:17:07.054Z,2948
2018-04-24T05:18:06.782Z,3116
2018-04-24T05:19:07.268Z,3312
2018-04-24T05:20:07.216Z,3500
2018-04-24T05:21:07.207Z,3604
2018-04-24T05:22:06.683Z,3640
2018-04-24T05:23:06.911Z,3608
2018-04-24T05:24:06.891Z,3536
2018-04-24T05:25:06.612Z,3468
2018-04-24T05:26:06.591Z,3392
2018-04-24T05:27:06.816Z,3304
2018-04-24T05:28:07.036Z,3308
2018-04-24T05:29:06.518Z,3412
2018-04-24T05:30:06.741Z,3604
2018-04-24T05:31:06.523Z,3904
2018-04-24T05:32:06.443Z,4076
2018-04-24T05:33:07.005Z,4128
2018-04-24T05:34:06.651Z,4192
2018-04-24T05:35:06.626Z,4368
2018-04-24T05:36:06.848Z,4620
2018-04-24T05:37:06.823Z,4844
2018-04-24T05:38:06.805Z,5072
2018-04-24T05:39:06.276Z,5356
2018-04-24T05:40:06.753Z,5752
2018-04-24T05:41:06.482Z,6092
2018-04-24T05:42:06.466Z,6572
2018-04-24T05:43:06.679Z,7128
2018-04-24T05:44:06.655Z,7580
2018-04-24T05:45:06.639Z,8020
2018-04-24T05:46:06.359Z,8388
2018-04-24T05:47:06.335Z,8608
2018-04-24T05:48:06.064Z,8968
2018-04-24T05:49:06.543Z,9328
2018-04-24T05:50:06.329Z,9804
2018-04-24T05:51:06.253Z,10360
2018-04-24T05:52:06.214Z,10876
2018-04-24T05:53:06.648Z,11560
2018-04-24T05:54:06.221Z,12396
2018-04-24T05:55:06.391Z,13028
2018-04-24T05:56:06.372Z,13440
2018-04-24T05:57:06.101Z,13044
2018-04-24T05:58:06.326Z,12652
2018-04-24T05:59:06.313Z,12396
2018-04-24T06:00:06.283Z,11888
2018-04-24T06:01:05.769Z,11616
2018-04-24T06:02:05.981Z,11456
2018-04-24T06:03:06.131Z,11052
2018-04-24T06:04:06.221Z,11308
2018-04-24T06:05:06.179Z,11080
2018-04-24T06:06:06.143Z,13108
2018-04-24T06:07:06.139Z,11344
2018-04-24T06:08:06.116Z,10216
2018-04-24T06:09:06.086Z,9708
2018-04-24T06:10:06.068Z,9672
2018-04-24T06:11:05.787Z,9744
2018-04-24T06:12:06.017Z,9884
2018-04-24T06:13:05.736Z,9996
2018-04-24T06:14:05.725Z,10068
2018-04-24T06:15:06.145Z,10040
2018-04-24T06:16:05.932Z,9844
2018-04-24T06:17:05.897Z,9536
2018-04-24T06:18:05.884Z,9196
2018-04-24T06:19:05.615Z,9044
2018-04-24T06:20:05.589Z,8892
2018-04-24T06:21:05.609Z,8720
2018-04-24T06:22:05.784Z,8636
2018-04-24T06:23:05.518Z,8564
2018-04-24T06:24:05.741Z,8592
2018-04-24T06:25:05.723Z,8784
2018-04-24T06:26:05.207Z,8888
2018-04-24T06:27:05.686Z,8788
2018-04-24T06:28:05.407Z,8808
2018-04-24T06:29:05.138Z,8820
2018-04-24T06:30:05.368Z,9028
2018-04-24T06:31:05.091Z,9256
2018-04-24T06:32:05.392Z,9572
2018-04-24T06:33:05.545Z,9864
2018-04-24T06:34:05.278Z,10140
2018-04-24T06:35:05.699Z,10148
2018-04-24T06:36:06.309Z,9948
2018-04-24T06:37:05.211Z,9644
2018-04-24T06:38:04.937Z,9360
2018-04-24T06:39:05.889Z,9336
2018-04-24T06:40:05.929Z,9500
2018-04-24T06:41:05.121Z,9668
2018-04-24T06:42:05.109Z,10100
2018-04-24T06:43:05.331Z,10664
2018-04-24T06:44:05.049Z,11204
2018-04-24T06:45:06.351Z,11836
2018-04-24T06:46:05.263Z,12428
2018-04-24T06:47:05.232Z,12940
2018-04-24T06:48:05.213Z,13284
2018-04-24T06:49:05.190Z,13352
2018-04-24T06:50:05.166Z,13340
2018-04-24T06:51:05.152Z,13584
2018-04-24T06:52:05.124Z,13848
2018-04-24T06:53:04.850Z,13892
2018-04-24T06:54:05.074Z,13952
2018-04-24T06:55:05.338Z,13920
2018-04-24T06:56:05.046Z,13992
2018-04-24T06:57:04.867Z,14024
2018-04-24T06:58:05.023Z,13820
2018-04-24T06:59:04.979Z,13692
2018-04-24T07:00:04.709Z,13652
2018-04-24T07:01:04.676Z,13856
2018-04-24T07:02:04.902Z,13852
2018-04-24T07:03:04.888Z,13808
2018-04-24T07:04:04.856Z,13880
2018-04-24T07:05:04.836Z,14600
2018-04-24T07:06:04.813Z,14828
2018-04-24T07:07:04.795Z,14488
2018-04-24T07:08:04.778Z,14556
2018-04-24T07:09:04.502Z,15000
2018-04-24T07:10:04.739Z,15172
2018-04-24T07:11:04.834Z,15160
2018-04-24T07:12:04.692Z,15876
2018-04-24T07:13:04.685Z,17312
2018-04-24T07:14:04.146Z,18816
2018-04-24T07:15:04.130Z,19936
2018-04-24T07:16:05.439Z,20128
2018-04-24T07:17:05.618Z,18496
2018-04-24T07:18:05.252Z,15944
2018-04-24T07:19:04.973Z,14624
2018-04-24T07:20:04.226Z,13268
2018-04-24T07:21:04.170Z,12168
2018-04-24T07:22:04.243Z,12036
2018-04-24T07:23:04.279Z,12680
2018-04-24T07:24:04.533Z,13248
2018-04-24T07:25:04.179Z,14268
2018-04-24T07:26:04.551Z,15272
2018-04-24T07:27:04.211Z,15532
2018-04-24T07:28:04.354Z,14624
2018-04-24T07:29:04.077Z,12708
2018-04-24T07:30:04.065Z,10988
2018-04-24T07:31:03.880Z,10436
2018-04-24T07:32:04.301Z,10312
2018-04-24T07:33:05.260Z,10396
2018-04-24T07:34:05.021Z,10356
2018-04-24T07:35:06.001Z,10152
2018-04-24T07:36:04.405Z,9776
2018-04-24T07:37:03.922Z,9424
2018-04-24T07:38:03.648Z,9280
2018-04-24T07:39:03.889Z,9284
2018-04-24T07:40:04.889Z,9468
2018-04-24T07:41:04.320Z,9428
2018-04-24T07:42:04.120Z,9148
2018-04-24T07:43:03.825Z,9240
2018-04-24T07:44:04.046Z,9668
2018-04-24T07:45:03.493Z,9912
2018-04-24T07:46:04.004Z,10296
2018-04-24T07:47:03.700Z,10900
2018-04-24T07:48:03.727Z,11524
2018-04-24T07:49:03.657Z,11980
2018-04-24T07:50:03.463Z,12056
2018-04-24T07:51:03.895Z,11812
2018-04-24T07:52:03.676Z,11508
2018-04-24T07:53:03.564Z,11464
2018-04-24T07:54:03.886Z,11260
2018-04-24T07:55:03.880Z,11092
2018-04-24T07:56:03.745Z,11432
2018-04-24T07:57:03.749Z,12080
2018-04-24T07:58:03.752Z,12784
2018-04-24T07:59:03.684Z,13252
2018-04-24T08:00:03.176Z,13020
2018-04-24T08:01:03.655Z,12124
2018-04-24T08:02:03.172Z,11412
2018-04-24T08:03:03.613Z,12400
2018-04-24T08:04:03.088Z,13436
2018-04-24T08:05:03.310Z,14048
2018-04-24T08:06:03.470Z,14420
2018-04-24T08:07:03.520Z,14632
2018-04-24T08:08:03.569Z,15176
2018-04-24T08:09:03.479Z,15160
2018-04-24T08:10:03.459Z,14744
2018-04-24T08:11:03.189Z,14500
2018-04-24T08:12:03.714Z,15608
2018-04-24T08:13:03.143Z,15988
2018-04-24T08:14:03.123Z,15700
2018-04-24T08:15:03.103Z,16400
2018-04-24T08:16:03.090Z,18112
2018-04-24T08:17:03.426Z,19104
2018-04-24T08:18:03.355Z,19008
2018-04-24T08:19:03.706Z,18144
2018-04-24T08:20:03.801Z,18592
2018-04-24T08:21:03.917Z,21504
2018-04-24T08:22:04.177Z,24992
2018-04-24T08:23:03.089Z,27520
2018-04-24T08:24:02.924Z,28832
2018-04-24T08:25:02.894Z,29056
2018-04-24T08:26:02.878Z,28032
2018-04-24T08:27:02.851Z,26944
2018-04-24T08:28:03.102Z,25568
2018-04-24T08:29:02.684Z,24256
2018-04-24T08:30:03.434Z,24128
2018-04-24T08:31:03.115Z,24128
2018-04-24T08:32:02.788Z,25632
2018-04-24T08:33:03.257Z,26144
2018-04-24T08:34:02.791Z,26112
2018-04-24T08:35:02.660Z,25088
2018-04-24T08:36:02.514Z,22784
2018-04-24T08:37:02.784Z,21152
2018-04-24T08:38:02.994Z,21120
2018-04-24T08:39:03.080Z,22880
2018-04-24T08:40:03.131Z,24736
2018-04-24T08:41:02.807Z,25248
2018-04-24T08:42:02.275Z,24896
2018-04-24T08:43:02.870Z,24736
2018-04-24T08:44:02.316Z,25952
2018-04-24T08:45:02.503Z,28512
2018-04-24T08:46:02.891Z,31744
2018-04-24T08:47:03.355Z,30624
2018-04-24T08:48:02.594Z,27520
2018-04-24T08:49:02.758Z,26496
2018-04-24T08:50:02.662Z,26624
2018-04-24T08:51:02.151Z,25792
2018-04-24T08:52:02.626Z,25024
2018-04-24T08:53:02.610Z,23328
2018-04-24T08:54:02.677Z,22880
2018-04-24T08:55:02.570Z,23680
2018-04-24T08:56:02.572Z,24256
2018-04-24T08:57:02.295Z,23520
2018-04-24T08:58:02.277Z,21696
2018-04-24T08:59:02.255Z,21824
2018-04-24T09:00:02.481Z,24320
2018-04-24T09:01:01.970Z,24576
2018-04-24T09:02:03.085Z,25376
2018-04-24T09:03:02.314Z,26944
2018-04-24T09:04:02.406Z,26464
2018-04-24T09:05:02.394Z,24864
2018-04-24T09:06:02.126Z,24384
2018-04-24T09:07:01.611Z,24000
2018-04-24T09:08:02.339Z,22304
2018-04-24T09:09:02.065Z,22240
2018-04-24T09:10:02.302Z,22880
2018-04-24T09:11:02.281Z,22912
2018-04-24T09:12:02.015Z,22912
2018-04-24T09:13:02.243Z,21760
2018-04-24T09:14:02.389Z,20480
2018-04-24T09:15:01.961Z,20192
2018-04-24T09:16:02.206Z,21088
2018-04-24T09:17:01.674Z,22368
2018-04-24T09:18:02.149Z,23744
2018-04-24T09:19:02.135Z,26144
2018-04-24T09:20:02.117Z,27520
2018-04-24T09:21:01.853Z,26720
2018-04-24T09:22:01.849Z,26208
2018-04-24T09:23:01.853Z,26816
2018-04-24T09:24:02.046Z,29440
2018-04-24T09:25:02.018Z,29248
2018-04-24T09:26:02.006Z,26784
2018-04-24T09:27:02.249Z,24576
2018-04-24T09:28:01.964Z,23104
2018-04-24T09:29:01.941Z,22880
2018-04-24T09:30:01.681Z,22944
2018-04-24T09:31:01.676Z,23008
2018-04-24T09:32:01.639Z,20320
2018-04-24T09:33:01.876Z,17632
2018-04-24T09:34:01.866Z,17084
2018-04-24T09:35:01.835Z,17664
2018-04-24T09:36:01.565Z,17824
2018-04-24T09:37:01.810Z,17472
2018-04-24T09:38:01.777Z,16568
2018-04-24T09:39:01.972Z,16652
2018-04-24T09:40:01.755Z,17600
2018-04-24T09:41:01.760Z,19104
2018-04-24T09:42:01.486Z,21632
2018-04-24T09:43:01.186Z,24576
2018-04-24T09:44:02.348Z,26336
2018-04-24T09:45:01.671Z,27136
2018-04-24T09:46:01.209Z,26976
2018-04-24T09:47:01.694Z,28608
2018-04-24T09:48:01.591Z,27552
2018-04-24T09:49:01.918Z,24800
2018-04-24T09:50:01.559Z,24608
2018-04-24T09:51:01.531Z,23008
2018-04-24T09:52:01.521Z,22976
2018-04-24T09:53:01.495Z,23200
2018-04-24T09:54:01.417Z,24864
2018-04-24T09:55:00.973Z,25120
2018-04-24T09:56:00.947Z,22464
2018-04-24T09:57:01.594Z,21504
2018-04-24T09:58:01.158Z,21600
2018-04-24T09:59:01.137Z,21216
2018-04-24T10:00:01.439Z,18848
2018-04-24T10:01:01.103Z,19072
2018-04-24T10:02:01.350Z,21088
2018-04-24T10:03:01.066Z,22560
2018-04-24T10:04:01.291Z,21088
2018-04-24T10:05:01.287Z,23264
2018-04-24T10:06:01.008Z,24096
2018-04-24T10:07:01.236Z,22144
2018-04-24T10:08:01.346Z,19744
2018-04-24T10:09:01.190Z,21344
2018-04-24T10:10:01.181Z,20736
2018-04-24T10:11:01.177Z,21248
2018-04-24T10:12:01.151Z,20192
2018-04-24T10:13:00.912Z,20512
2018-04-24T10:14:01.113Z,20832
2018-04-24T10:15:01.082Z,20544
2018-04-24T10:16:01.071Z,20864
2018-04-24T10:17:01.058Z,20192
2018-04-24T10:18:00.779Z,21024
2018-04-24T10:19:01.013Z,21568
2018-04-24T10:20:00.754Z,20384
2018-04-24T10:21:00.975Z,19936
2018-04-24T10:22:00.961Z,19808
2018-04-24T10:23:00.926Z,20320
2018-04-24T10:24:00.913Z,22272
2018-04-24T10:25:00.898Z,21216
2018-04-24T10:26:00.875Z,21024
2018-04-24T10:27:00.859Z,22976
2018-04-24T10:28:00.597Z,23872
2018-04-24T10:29:00.829Z,25728
2018-04-24T10:30:00.564Z,26400
2018-04-24T10:31:00.534Z,27040
2018-04-24T10:32:00.264Z,26016
2018-04-24T10:33:00.745Z,24480
2018-04-24T10:34:00.481Z,25024
2018-04-24T10:35:00.700Z,25920
2018-04-24T10:36:00.683Z,25024
2018-04-24T10:37:00.413Z,23264
2018-04-24T10:38:00.644Z,21888
2018-04-24T10:39:00.395Z,22592
2018-04-24T10:40:00.609Z,23424
2018-04-24T10:41:00.596Z,22688
2018-04-24T10:42:00.320Z,21600
2018-04-24T10:43:00.577Z,21664
2018-04-24T10:44:00.409Z,20704
2018-04-24T10:45:00.516Z,19296
2018-04-24T10:46:00.011Z,18880
2018-04-24T10:47:00.235Z,19712
2018-04-24T10:48:00.338Z,21568
2018-04-24T10:49:00.191Z,22368
2018-04-24T10:50:00.176Z,21088
2018-04-24T10:51:00.406Z,23392
2018-04-24T10:51:59.631Z,22816
2018-04-24T10:52:59.867Z,23008
2018-04-24T10:54:00.360Z,23200
2018-04-24T10:55:00.081Z,22784
2018-04-24T10:56:00.573Z,25248
2018-04-24T10:56:59.792Z,23296
2018-04-24T10:58:00.027Z,22304
2018-04-24T10:59:00.252Z,29632
2018-04-24T10:59:59.982Z,27872
2018-04-24T11:00:59.966Z,30848
2018-04-24T11:02:00.173Z,32448
2018-04-24T11:03:00.217Z,31072
2018-04-24T11:04:00.160Z,29728
2018-04-24T11:05:00.144Z,27648
2018-04-24T11:06:00.123Z,25888
2018-04-24T11:07:00.112Z,25824
2018-04-24T11:07:59.588Z,24768
2018-04-24T11:09:00.069Z,24000
2018-04-24T11:09:59.803Z,24896
2018-04-24T11:11:00.036Z,25312
2018-04-24T11:12:00.316Z,24448
2018-04-24T11:13:01.164Z,22656
2018-04-24T11:13:59.299Z,25152
2018-04-24T11:14:59.462Z,24096
2018-04-24T11:15:59.725Z,22656
2018-04-24T11:17:00.293Z,18368
2018-04-24T11:17:59.660Z,17856
2018-04-24T11:18:59.889Z,16768
2018-04-24T11:20:00.333Z,15660
2018-04-24T11:21:00.309Z,15668
2018-04-24T11:21:59.586Z,15768
2018-04-24T11:22:59.573Z,15812
2018-04-24T11:23:59.800Z,14952
2018-04-24T11:24:59.794Z,13948
2018-04-24T11:25:59.518Z,12868
2018-04-24T11:26:59.751Z,14156
2018-04-24T11:27:59.812Z,17600
2018-04-24T11:28:59.718Z,15316
2018-04-24T11:29:59.693Z,12008
2018-04-24T11:30:59.680Z,11364
2018-04-24T11:31:59.153Z,12552
2018-04-24T11:32:59.392Z,13600
2018-04-24T11:33:59.117Z,14760
2018-04-24T11:34:59.607Z,16692
2018-04-24T11:35:59.515Z,16716
2018-04-24T11:36:59.351Z,20160
2018-04-24T11:37:59.544Z,20960
2018-04-24T11:38:59.525Z,17792
2018-04-24T11:39:59.508Z,17500
2018-04-24T11:40:59.230Z,18080
2018-04-24T11:41:59.463Z,17388
2018-04-24T11:42:59.197Z,14564
2018-04-24T11:43:59.124Z,19712
2018-04-24T11:44:59.401Z,23488
2018-04-24T11:45:58.887Z,17372
2018-04-24T11:46:59.109Z,17492
2018-04-24T11:47:59.352Z,21120
2018-04-24T11:48:59.322Z,27104
2018-04-24T11:49:59.057Z,27712
2018-04-24T11:50:59.289Z,23712
2018-04-24T11:51:59.267Z,23456
2018-04-24T11:52:59.243Z,21536
2018-04-24T11:53:59.229Z,20352
2018-04-24T11:54:59.209Z,19008
2018-04-24T11:55:59.202Z,16172
2018-04-24T11:56:58.949Z,15908
2018-04-24T11:57:58.905Z,19104
2018-04-24T11:58:59.140Z,18528
2018-04-24T11:59:58.912Z,18048
2018-04-24T12:00:59.106Z,25728
2018-04-24T12:01:58.830Z,28768
2018-04-24T12:02:59.274Z,26400
2018-04-24T12:03:58.553Z,23744
2018-04-24T12:04:59.033Z,27040
2018-04-24T12:05:59.009Z,26944
2018-04-24T12:06:58.995Z,28768
2018-04-24T12:07:58.987Z,26848
2018-04-24T12:08:58.959Z,24896
2018-04-24T12:09:59.252Z,24544
2018-04-24T12:10:58.931Z,20928
2018-04-24T12:11:59.880Z,20768
2018-04-24T12:12:58.873Z,17300
2018-04-24T12:13:58.604Z,13088
2018-04-24T12:14:58.847Z,12340
2018-04-24T12:15:58.815Z,13336
2018-04-24T12:16:58.546Z,13624
2018-04-24T12:17:58.607Z,12812
2018-04-24T12:18:58.529Z,14872
2018-04-24T12:19:58.766Z,14936
2018-04-24T12:20:58.473Z,13340
2018-04-24T12:21:58.706Z,13336
2018-04-24T12:22:58.697Z,15524
2018-04-24T12:23:58.426Z,16380
2018-04-24T12:24:58.647Z,17352
2018-04-24T12:25:58.637Z,16344
2018-04-24T12:26:58.615Z,17188
2018-04-24T12:27:58.597Z,17952
2018-04-24T12:28:58.584Z,17148
2018-04-24T12:29:58.555Z,17008
2018-04-24T12:30:58.538Z,19968
2018-04-24T12:31:58.285Z,19232
2018-04-24T12:32:58.502Z,16484
2018-04-24T12:33:58.486Z,17180
2018-04-24T12:34:58.456Z,15704
2018-04-24T12:35:58.445Z,15976
2018-04-24T12:36:58.426Z,16600
2018-04-24T12:37:58.403Z,15280
2018-04-24T12:38:58.815Z,14296
2018-04-24T12:39:57.873Z,15508
2018-04-24T12:40:57.854Z,15648
2018-04-24T12:41:58.078Z,15016
2018-04-24T12:42:58.059Z,16508
2018-04-24T12:43:58.055Z,14252
2018-04-24T12:44:58.274Z,13932
2018-04-24T12:45:58.253Z,14712
2018-04-24T12:46:58.323Z,15908
2018-04-24T12:47:57.967Z,17284
2018-04-24T12:48:57.946Z,16980
2018-04-24T12:49:57.934Z,18944
2018-04-24T12:50:57.906Z,20384
2018-04-24T12:51:58.263Z,21024
2018-04-24T12:52:57.626Z,21216
2018-04-24T12:53:58.099Z,24512
2018-04-24T12:54:58.082Z,24256
2018-04-24T12:55:57.818Z,22240
2018-04-24T12:56:58.058Z,21248
2018-04-24T12:57:58.002Z,17888
2018-04-24T12:58:57.513Z,17020
2018-04-24T12:59:57.750Z,16588
2018-04-24T13:00:57.966Z,15612
2018-04-24T13:01:57.716Z,15048
2018-04-24T13:02:57.688Z,13956
2018-04-24T13:03:58.108Z,12396
2018-04-24T13:04:57.892Z,11884
2018-04-24T13:05:57.876Z,12748
2018-04-24T13:06:57.862Z,16504
2018-04-24T13:07:57.852Z,15952
2018-04-24T13:08:57.818Z,14720
2018-04-24T13:09:57.962Z,17632
2018-04-24T13:10:57.788Z,18496
2018-04-24T13:11:57.783Z,17268
2018-04-24T13:12:57.749Z,17792
2018-04-24T13:13:57.726Z,18464
2018-04-24T13:14:57.704Z,22368
2018-04-24T13:15:57.446Z,23808
2018-04-24T13:16:57.749Z,24288
2018-04-24T13:17:57.653Z,23904
2018-04-24T13:18:57.393Z,23488
2018-04-24T13:19:57.115Z,22880
2018-04-24T13:20:57.598Z,24128
2018-04-24T13:21:57.327Z,28960
2018-04-24T13:22:57.067Z,28000
2018-04-24T13:23:57.293Z,29504
2018-04-24T13:24:57.276Z,31232
2018-04-24T13:25:57.315Z,31520
2018-04-24T13:26:57.482Z,32960
2018-04-24T13:27:57.491Z,32032
2018-04-24T13:28:57.447Z,31648